createdAt,value
2022-11-25T00:02:14.144Z,2.27
2022-11-25T00:12:17.084Z,1.77
2022-11-25T00:22:21.389Z,1.80
2022-11-25T00:32:24.589Z,1.80
2022-11-25T00:42:46.106Z,2.10
2022-11-25T00:52:49.133Z,2.00
2022-11-25T01:02:53.629Z,2.20
2022-11-25T01:12:56.999Z,1.80
2022-11-25T01:23:01.455Z,1.97
2022-11-25T01:33:04.489Z,2.70
2022-11-25T01:43:14.282Z,1.90
2022-11-25T01:53:20.381Z,1.90
2022-11-25T02:03:27.541Z,2.20
2022-11-25T02:13:30.908Z,2.10
2022-11-25T02:23:40.947Z,2.30
2022-11-25T02:33:47.078Z,1.93
2022-11-25T02:43:50.384Z,1.87
2022-11-25T02:53:57.654Z,1.73
2022-11-25T03:04:02.199Z,1.73
2022-11-25T03:14:07.099Z,1.50
2022-11-25T03:24:10.306Z,2.40
2022-11-25T03:34:14.691Z,1.80
2022-11-25T03:44:17.868Z,1.97
2022-11-25T03:54:22.863Z,1.97
2022-11-25T04:04:44.875Z,2.00
2022-11-25T04:14:49.482Z,2.40
2022-11-25T04:24:52.549Z,1.63
2022-11-25T04:35:02.127Z,3.03
2022-11-25T04:45:22.472Z,2.10
2022-11-25T04:55:29.214Z,2.27
2022-11-25T05:05:34.452Z,1.73
2022-11-25T05:15:38.796Z,2.33
2022-11-25T05:25:44.168Z,1.80
2022-11-25T05:36:05.183Z,3.13
2022-11-25T05:46:21.037Z,2.30
2022-11-25T05:56:29.608Z,1.97
2022-11-25T06:06:50.865Z,2.40
2022-11-25T06:16:55.454Z,2.20
2022-11-25T06:27:11.633Z,2.37
2022-11-25T06:37:17.108Z,1.70
2022-11-25T06:47:20.409Z,1.70
2022-11-25T06:57:24.825Z,1.93
2022-11-25T07:07:28.523Z,1.53
2022-11-25T07:17:33.454Z,1.40
2022-11-25T07:27:36.524Z,1.30
2022-11-25T07:37:40.843Z,1.10
2022-11-25T07:47:43.732Z,1.50
2022-11-25T07:57:47.817Z,1.20
2022-11-25T08:07:50.663Z,1.43
2022-11-25T08:17:55.204Z,1.60
2022-11-25T08:27:59.800Z,1.70
2022-11-25T08:38:03.990Z,1.30
2022-11-25T08:48:07.419Z,1.33
2022-11-25T08:58:13.306Z,1.13
2022-11-25T09:08:16.477Z,1.13
2022-11-25T09:18:25.964Z,1.33
2022-11-25T09:38:34.147Z,1.73
2022-11-25T09:48:53.011Z,0.93
2022-11-25T09:59:02.766Z,0.97
2022-11-25T10:09:13.945Z,1.10
2022-11-25T10:19:27.389Z,0.90
2022-11-25T10:29:31.889Z,1.10
2022-11-25T10:39:36.551Z,1.20
2022-11-25T10:49:46.739Z,0.90
2022-11-25T10:59:59.011Z,0.90
2022-11-25T11:10:19.256Z,1.10
2022-11-25T11:20:26.015Z,0.80
2022-11-25T11:30:31.028Z,1.50
2022-11-25T11:40:40.140Z,1.30
2022-11-25T11:50:48.442Z,1.30
2022-11-25T12:01:05.613Z,1.20
2022-11-25T12:11:15.924Z,1.60
2022-11-25T12:21:41.873Z,0.97
2022-11-25T12:31:51.486Z,1.67
2022-11-25T12:42:01.052Z,1.40
2022-11-25T12:52:28.871Z,1.50
2022-11-25T13:10:55.632Z,2.80
2022-11-25T13:13:48.795Z,1.83
2022-11-25T13:23:56.425Z,1.07
2022-11-25T13:34:27.296Z,2.23
2022-11-25T13:44:35.498Z,1.93
2022-11-25T13:54:45.585Z,1.40
2022-11-25T14:05:00.326Z,1.80
2022-11-25T14:15:33.815Z,1.20
2022-11-25T14:25:50.477Z,1.87
2022-11-25T14:35:59.668Z,1.43
2022-11-25T14:56:24.613Z,1.33
2022-11-25T15:06:35.393Z,0.98
2022-11-25T15:16:41.555Z,1.00
2022-11-25T15:26:52.316Z,1.30
2022-11-25T15:36:55.361Z,1.40
2022-11-25T15:47:05.185Z,1.30
2022-11-25T15:57:18.624Z,1.30
2022-11-25T16:07:24.800Z,2.37
2022-11-25T16:17:28.833Z,1.33
2022-11-25T16:27:38.206Z,1.33
2022-11-25T16:37:47.083Z,1.43
2022-11-25T16:47:53.626Z,1.43
2022-11-25T16:57:56.415Z,1.80
2022-11-25T17:08:00.598Z,1.90
2022-11-25T17:18:05.288Z,1.60
2022-11-25T17:28:15.652Z,2.00
2022-11-25T17:38:20.825Z,3.93
2022-11-25T17:48:25.658Z,3.03
2022-11-25T17:58:28.838Z,3.37
2022-11-25T18:08:33.191Z,2.43
2022-11-25T18:18:36.040Z,2.43
2022-11-25T18:28:40.319Z,3.30
2022-11-25T18:38:43.043Z,1.73
2022-11-25T18:48:47.338Z,2.40
2022-11-25T18:58:51.713Z,1.83
2022-11-25T19:08:55.927Z,1.90
2022-11-25T19:18:58.633Z,2.43
2022-11-25T19:29:08.044Z,2.30
2022-11-25T19:39:17.869Z,2.53
2022-11-25T19:49:22.907Z,2.67
2022-11-25T19:59:25.960Z,2.30
2022-11-25T20:09:30.353Z,2.20
2022-11-25T20:19:33.455Z,2.63
2022-11-25T20:29:37.799Z,1.90
2022-11-25T20:39:40.851Z,2.70
2022-11-25T20:49:46.434Z,1.90
2022-11-25T20:59:49.620Z,3.13
2022-11-25T21:09:54.275Z,3.33
2022-11-25T21:20:06.391Z,3.00
2022-11-25T21:30:18.418Z,3.43
2022-11-25T21:40:41.605Z,3.30
2022-11-25T21:50:44.472Z,4.23
2022-11-25T22:00:51.516Z,4.10
2022-11-25T22:10:56.699Z,3.83
2022-11-25T22:21:01.061Z,7.23
2022-11-25T22:31:08.026Z,4.97
2022-11-25T22:41:12.723Z,5.47
2022-11-25T22:51:18.756Z,5.20
2022-11-25T23:01:23.494Z,6.37
2022-11-25T23:11:27.417Z,6.07
2022-11-25T23:21:32.280Z,5.63
2022-11-25T23:31:36.482Z,6.03
2022-11-25T23:41:40.762Z,4.60
2022-11-25T23:51:43.607Z,5.20
